Time;durP1;ratioP1;P1;durP2;ratioP2;P2;SDS_P1;SDS_P2;PMS_P1;PMS_P2;Temp;Humidity;BMP_temperature;BMP_pressure;BME280_temperature;BME280_humidity;BME280_pressure;Samples;Min_cycle;Max_cycle;Signal;HPM_P1;HPM_P2
2023/04/13 00:00:50;;;;;;;4.78;2.83;;;4.50;1.00;;;;;;5047153;28;20086;-88
2023/04/13 00:03:17;;;;;;;6.38;3.20;;;4.60;1.00;;;;;;5058088;28;20048;-89
2023/04/13 00:05:44;;;;;;;8.35;3.40;;;4.70;1.00;;;;;;5061827;28;20043;-88
2023/04/13 00:08:10;;;;;;;5.43;3.13;;;4.80;1.00;;;;;;5080607;28;20051;-88
2023/04/13 00:10:40;;;;;;;8.15;4.00;;;4.90;1.00;;;;;;5077465;28;20132;-88
2023/04/13 00:13:07;;;;;;;5.18;3.47;;;5.00;1.00;;;;;;5056664;28;20047;-88
2023/04/13 00:15:35;;;;;;;5.20;3.40;;;5.10;1.00;;;;;;5076799;28;20493;-88
2023/04/13 00:18:01;;;;;;;7.40;3.83;;;5.20;99.90;;;;;;5051463;28;20044;-88
2023/04/13 00:20:28;;;;;;;6.15;3.40;;;5.20;99.90;;;;;;5073133;28;20040;-88
2023/04/13 00:22:53;;;;;;;4.25;3.00;;;5.30;99.90;;;;;;5070792;28;20051;-88
2023/04/13 00:25:19;;;;;;;7.55;3.67;;;5.60;99.90;;;;;;5033949;28;20048;-88
2023/04/13 00:27:45;;;;;;;6.38;3.30;;;5.40;99.90;;;;;;5043637;28;20048;-88
2023/04/13 00:30:15;;;;;;;6.07;3.60;;;5.40;99.90;;;;;;5075162;28;20535;-88
2023/04/13 00:32:43;;;;;;;5.75;3.75;;;5.40;99.90;;;;;;5056210;28;20058;-87
2023/04/13 00:35:10;;;;;;;6.18;3.58;;;5.40;99.90;;;;;;5073448;28;20044;-87
2023/04/13 00:37:37;;;;;;;7.00;3.70;;;5.40;99.90;;;;;;5056151;28;20135;-89
2023/04/13 00:40:08;;;;;;;4.75;3.40;;;5.50;99.90;;;;;;5055579;28;20043;-88
2023/04/13 00:42:34;;;;;;;4.20;3.15;;;5.50;99.90;;;;;;5066834;28;20076;-88
2023/04/13 00:45:00;;;;;;;5.13;3.05;;;5.60;99.90;;;;;;5056160;28;20067;-89
2023/04/13 00:47:29;;;;;;;5.10;3.35;;;5.70;99.90;;;;;;5056092;28;20043;-87
2023/04/13 00:49:55;;;;;;;5.18;3.38;;;5.80;99.90;;;;;;5058721;28;20047;-89
2023/04/13 00:52:22;;;;;;;7.65;3.35;;;5.70;99.90;;;;;;5038000;28;20052;-89
2023/04/13 00:54:51;;;;;;;5.55;3.25;;;5.80;99.90;;;;;;5080014;28;20044;-89
2023/04/13 00:57:18;;;;;;;4.75;3.03;;;5.80;99.90;;;;;;5065045;28;20111;-88
2023/04/13 00:59:48;;;;;;;3.88;2.53;;;5.70;1.00;;;;;;5014866;28;20085;-88
2023/04/13 01:02:15;;;;;;;5.85;2.63;;;5.80;1.00;;;;;;5038355;28;20184;-89
2023/04/13 01:04:41;;;;;;;5.28;2.35;;;5.60;1.00;;;;;;5060795;28;20054;-88
2023/04/13 01:07:18;;;;;;;5.18;2.25;;;5.60;1.00;;;;;;5054952;28;20078;-88
2023/04/13 01:09:59;;;;;;;5.68;2.40;;;5.80;1.00;;;;;;5057715;28;20051;-89
2023/04/13 01:12:33;;;;;;;3.72;2.17;;;5.50;1.00;;;;;;5065825;28;20055;-89
2023/04/13 01:15:11;;;;;;;6.97;3.13;;;5.50;1.00;;;;;;5069440;28;20040;-89
2023/04/13 01:17:40;;;;;;;6.05;2.92;;;5.50;1.00;;;;;;5069286;28;20036;-88
2023/04/13 01:20:19;;;;;;;5.25;2.70;;;5.50;6.90;;;;;;5054849;28;20048;-88
2023/04/13 01:22:56;;;;;;;5.03;2.67;;;5.50;4.40;;;;;;5075429;28;20040;-88
2023/04/13 01:25:40;;;;;;;5.82;3.05;;;5.50;16.20;;;;;;5074402;28;20048;-87
2023/04/13 01:28:17;;;;;;;4.28;2.10;;;5.50;46.70;;;;;;5062681;28;20044;-88
2023/04/13 01:30:45;;;;;;;4.22;2.20;;;5.50;49.80;;;;;;5055428;28;20055;-88
2023/04/13 01:33:11;;;;;;;7.95;2.53;;;5.50;46.50;;;;;;5059534;28;20051;-88
2023/04/13 01:35:38;;;;;;;4.50;2.20;;;5.70;60.40;;;;;;5060553;28;20078;-88
2023/04/13 01:38:05;;;;;;;6.72;3.17;;;5.50;59.10;;;;;;5057315;28;20064;-88
2023/04/13 01:40:35;;;;;;;4.65;2.38;;;5.50;52.50;;;;;;5056277;28;20048;-88
2023/04/13 01:43:01;;;;;;;5.63;2.20;;;5.40;55.30;;;;;;5077243;28;20043;-88
2023/04/13 01:45:48;;;;;;;5.13;2.22;;;5.50;69.30;;;;;;5060715;28;20051;-88
2023/04/13 01:48:32;;;;;;;4.57;1.88;;;5.50;79.60;;;;;;5068563;28;20138;-88
2023/04/13 01:51:02;;;;;;;6.22;2.22;;;5.60;90.60;;;;;;5054342;28;20104;-89
2023/04/13 01:53:34;;;;;;;7.25;2.50;;;5.40;89.40;;;;;;5063657;28;20044;-89
2023/04/13 01:56:03;;;;;;;4.30;2.10;;;5.50;80.30;;;;;;5088250;28;20036;-88
2023/04/13 01:58:32;;;;;;;4.35;1.55;;;5.50;71.00;;;;;;5056692;28;20578;-89
2023/04/13 02:00:58;;;;;;;3.85;1.83;;;5.50;71.60;;;;;;5065885;28;20048;-88
2023/04/13 02:03:25;;;;;;;6.07;1.83;;;5.60;68.90;;;;;;5074452;28;20126;-88
2023/04/13 02:05:51;;;;;;;3.53;1.63;;;5.60;67.50;;;;;;5068879;28;20055;-89
2023/04/13 02:08:17;;;;;;;4.00;1.77;;;5.50;64.60;;;;;;5064984;28;20047;-89
2023/04/13 02:10:43;;;;;;;2.58;1.75;;;5.50;68.80;;;;;;5054838;28;20039;-89
2023/04/13 02:13:09;;;;;;;3.58;1.67;;;5.50;72.50;;;;;;5047542;28;20413;-88
2023/04/13 02:15:37;;;;;;;4.18;1.67;;;5.50;77.30;;;;;;5063949;28;20052;-90
2023/04/13 02:18:03;;;;;;;3.97;1.63;;;5.50;90.10;;;;;;5075663;28;20040;-89
2023/04/13 02:20:32;;;;;;;3.72;1.63;;;5.50;92.90;;;;;;5055642;28;20445;-90
2023/04/13 02:22:59;;;;;;;4.35;1.58;;;5.40;94.20;;;;;;5093114;28;20048;-90
2023/04/13 02:25:26;;;;;;;2.78;1.55;;;5.50;99.90;;;;;;5062134;28;20393;-90
2023/04/13 02:27:52;;;;;;;5.55;2.03;;;5.60;99.90;;;;;;5088719;28;20057;-90
2023/04/13 02:30:18;;;;;;;5.00;1.50;;;5.80;99.90;;;;;;5060528;28;20142;-89
2023/04/13 02:32:48;;;;;;;3.83;1.60;;;5.60;99.90;;;;;;5082012;28;20126;-89
2023/04/13 02:35:14;;;;;;;3.20;1.50;;;5.60;99.90;;;;;;5048463;28;20084;-89
2023/04/13 02:37:40;;;;;;;5.00;1.40;;;5.50;99.90;;;;;;5055685;28;20130;-89
2023/04/13 02:40:11;;;;;;;6.22;1.73;;;5.50;99.90;;;;;;5057291;28;20060;-89
2023/04/13 02:42:37;;;;;;;6.32;1.65;;;5.50;99.90;;;;;;5066321;28;20051;-89
2023/04/13 02:45:05;;;;;;;5.15;1.70;;;5.60;99.90;;;;;;5048038;28;20040;-89
2023/04/13 02:47:32;;;;;;;3.85;2.00;;;5.50;99.90;;;;;;5069717;28;20189;-89
2023/04/13 02:50:00;;;;;;;5.47;1.90;;;5.50;99.90;;;;;;5075303;28;20414;-89
2023/04/13 02:52:26;;;;;;;3.40;1.60;;;5.60;99.90;;;;;;5075545;28;20130;-90
2023/04/13 02:54:53;;;;;;;4.18;1.88;;;5.60;99.90;;;;;;5043607;28;20537;-89
2023/04/13 02:57:24;;;;;;;2.78;1.65;;;5.60;99.90;;;;;;5058883;28;20040;-89
2023/04/13 02:59:50;;;;;;;6.30;1.70;;;5.60;99.90;;;;;;5050099;28;20036;-89
2023/04/13 03:02:16;;;;;;;6.97;1.77;;;5.60;99.90;;;;;;5055777;28;20048;-89
2023/04/13 03:04:43;;;;;;;4.88;1.77;;;5.80;99.90;;;;;;5030541;28;20044;-89
2023/04/13 03:07:09;;;;;;;3.35;1.92;;;5.60;99.90;;;;;;5067253;28;20050;-89
2023/04/13 03:09:42;;;;;;;2.35;1.45;;;5.60;99.90;;;;;;5057593;28;20050;-89
2023/04/13 03:12:08;;;;;;;4.43;1.60;;;5.60;99.90;;;;;;5056047;28;20060;-89
2023/04/13 03:14:35;;;;;;;3.20;1.48;;;5.70;99.90;;;;;;5056745;28;20048;-90
2023/04/13 03:17:02;;;;;;;7.88;1.95;;;5.60;99.90;;;;;;5050919;28;20043;-90
2023/04/13 03:19:28;;;;;;;3.08;1.60;;;5.60;99.90;;;;;;5057459;28;20131;-90
2023/04/13 03:21:54;;;;;;;3.88;1.80;;;5.60;99.90;;;;;;5058873;28;20058;-89
2023/04/13 03:24:20;;;;;;;2.85;1.65;;;5.60;99.90;;;;;;5075334;28;20036;-89
2023/04/13 03:26:46;;;;;;;4.28;2.10;;;6.00;99.90;;;;;;5081196;28;20044;-89
2023/04/13 03:29:12;;;;;;;3.85;1.80;;;5.60;99.90;;;;;;5073747;28;20139;-89
2023/04/13 03:31:37;;;;;;;3.42;1.75;;;5.60;99.90;;;;;;5062409;28;20037;-89
2023/04/13 03:34:03;;;;;;;5.68;1.50;;;5.70;99.90;;;;;;5072469;28;20047;-89
2023/04/13 03:36:30;;;;;;;3.97;1.58;;;5.70;99.90;;;;;;5044775;28;20063;-89
2023/04/13 03:38:56;;;;;;;2.40;1.77;;;5.70;99.90;;;;;;5071967;28;20131;-88
2023/04/13 03:41:22;;;;;;;5.20;1.65;;;5.80;99.90;;;;;;5071830;28;20047;-88
2023/04/13 03:43:48;;;;;;;3.97;1.50;;;5.70;99.90;;;;;;5062738;28;20036;-89
2023/04/13 03:46:14;;;;;;;4.28;1.67;;;5.80;99.90;;;;;;5067163;28;20105;-89
2023/04/13 03:48:40;;;;;;;4.20;2.03;;;5.70;99.90;;;;;;5062527;28;20413;-89
2023/04/13 03:51:07;;;;;;;3.17;1.33;;;5.70;99.90;;;;;;5061100;28;20540;-88
2023/04/13 03:53:36;;;;;;;2.88;1.50;;;5.70;99.90;;;;;;5072937;28;20075;-88
2023/04/13 03:56:02;;;;;;;3.30;1.80;;;5.80;99.90;;;;;;5065181;28;20046;-88
2023/04/13 03:58:28;;;;;;;3.15;1.83;;;5.80;99.90;;;;;;5037855;28;20112;-87
2023/04/13 04:00:54;;;;;;;5.63;2.00;;;5.80;99.90;;;;;;5049195;28;20477;-89
2023/04/13 04:03:21;;;;;;;2.90;1.80;;;6.10;99.90;;;;;;5052207;28;20433;-88
2023/04/13 04:05:47;;;;;;;4.43;2.00;;;5.80;99.90;;;;;;5056785;28;20101;-89
2023/04/13 04:08:13;;;;;;;4.60;1.42;;;5.80;99.90;;;;;;5073960;28;20499;-89
2023/04/13 04:10:38;;;;;;;4.47;1.50;;;6.00;99.90;;;;;;5039048;28;20046;-89
2023/04/13 04:13:04;;;;;;;2.70;1.80;;;5.80;99.90;;;;;;5020785;28;20048;-88
2023/04/13 04:15:30;;;;;;;4.38;1.83;;;5.80;99.90;;;;;;5053896;28;20520;-89
2023/04/13 04:17:56;;;;;;;4.07;2.03;;;5.80;99.90;;;;;;5070651;28;20048;-88
2023/04/13 04:20:21;;;;;;;3.22;1.80;;;5.80;99.90;;;;;;5067329;28;20044;-89
2023/04/13 04:22:50;;;;;;;4.93;1.83;;;5.80;99.90;;;;;;5071874;28;20097;-89
2023/04/13 04:25:21;;;;;;;3.53;1.85;;;5.80;99.90;;;;;;5065745;28;20052;-88
2023/04/13 04:27:56;;;;;;;2.65;1.80;;;5.70;99.90;;;;;;5045404;28;20118;-88
2023/04/13 04:30:23;;;;;;;6.15;2.05;;;5.70;99.90;;;;;;5057026;28;20044;-88
2023/04/13 04:32:52;;;;;;;4.43;2.20;;;5.60;99.90;;;;;;5057459;28;20047;-89
2023/04/13 04:35:19;;;;;;;4.72;2.10;;;5.60;99.90;;;;;;5057409;28;20044;-88
2023/04/13 04:37:48;;;;;;;3.90;2.20;;;5.60;99.90;;;;;;5070145;28;20118;-88
2023/04/13 04:40:15;;;;;;;3.33;2.08;;;5.60;99.90;;;;;;5040286;28;20062;-89
2023/04/13 04:42:41;;;;;;;6.05;2.33;;;5.50;99.90;;;;;;5076937;28;20489;-89
2023/04/13 04:45:07;;;;;;;4.38;2.60;;;5.50;99.90;;;;;;5077168;28;20077;-89
2023/04/13 04:47:40;;;;;;;4.85;2.38;;;5.50;99.90;;;;;;5084167;28;20109;-90
2023/04/13 04:50:08;;;;;;;6.38;2.67;;;5.50;99.90;;;;;;5053303;28;20048;-89
2023/04/13 04:52:33;;;;;;;6.47;2.63;;;5.60;99.90;;;;;;5021555;28;20049;-89
2023/04/13 04:54:59;;;;;;;6.03;2.75;;;5.80;99.90;;;;;;5075655;28;20397;-90
2023/04/13 04:57:25;;;;;;;7.18;3.05;;;5.60;99.90;;;;;;5062233;28;20044;-87
2023/04/13 04:59:50;;;;;;;5.88;2.88;;;5.60;99.90;;;;;;5059126;28;20047;-86
2023/04/13 05:02:16;;;;;;;6.65;3.15;;;5.60;99.90;;;;;;5057508;28;20151;-84
2023/04/13 05:04:42;;;;;;;6.00;3.17;;;5.70;99.90;;;;;;5064930;28;20032;-84
2023/04/13 05:07:09;;;;;;;5.60;3.17;;;5.70;99.90;;;;;;5056014;28;20093;-82
2023/04/13 05:09:36;;;;;;;4.97;3.30;;;5.70;99.90;;;;;;5064940;28;20040;-86
2023/04/13 05:12:03;;;;;;;6.22;3.63;;;5.80;99.90;;;;;;5069701;28;20052;-85
2023/04/13 05:14:29;;;;;;;7.95;3.50;;;5.80;99.90;;;;;;5083081;28;20056;-85
2023/04/13 05:16:54;;;;;;;6.03;3.22;;;5.70;99.90;;;;;;5058652;28;20164;-86
2023/04/13 05:19:20;;;;;;;8.23;3.60;;;5.70;99.90;;;;;;5075273;28;20036;-86
2023/04/13 05:21:46;;;;;;;6.60;3.63;;;5.70;99.90;;;;;;5058912;28;20044;-85
2023/04/13 05:24:11;;;;;;;6.50;3.70;;;5.50;99.90;;;;;;5058565;28;20056;-85
2023/04/13 05:26:37;;;;;;;7.35;3.22;;;5.50;99.90;;;;;;5069067;28;20469;-85
2023/04/13 05:29:05;;;;;;;5.93;3.33;;;5.50;99.90;;;;;;5059920;28;20040;-87
2023/04/13 05:31:31;;;;;;;7.03;3.00;;;5.50;99.90;;;;;;5082621;28;20044;-84
2023/04/13 05:33:56;;;;;;;6.85;3.15;;;5.50;99.90;;;;;;5035883;28;20100;-85
2023/04/13 05:36:22;;;;;;;6.57;2.88;;;5.60;99.90;;;;;;5066711;28;20198;-86
2023/04/13 05:38:48;;;;;;;6.68;3.47;;;5.60;99.90;;;;;;5041846;28;20060;-86
2023/04/13 05:41:14;;;;;;;5.57;2.88;;;5.60;99.90;;;;;;5058108;28;20043;-86
2023/04/13 05:43:40;;;;;;;6.60;3.38;;;5.60;99.90;;;;;;5056424;28;20044;-86
2023/04/13 05:46:06;;;;;;;5.75;3.08;;;5.60;99.90;;;;;;5069179;28;20139;-87
2023/04/13 05:48:32;;;;;;;5.72;3.20;;;5.60;99.90;;;;;;5074767;28;20048;-86
2023/04/13 05:50:58;;;;;;;8.73;3.33;;;5.60;99.90;;;;;;5056048;28;20048;-81
2023/04/13 05:53:24;;;;;;;7.38;3.17;;;5.60;99.90;;;;;;5057527;28;20915;-81
2023/04/13 05:55:49;;;;;;;5.57;3.03;;;5.80;99.90;;;;;;5049802;28;20694;-86
2023/04/13 05:58:17;;;;;;;6.75;3.92;;;5.70;99.90;;;;;;5074518;28;20059;-85
2023/04/13 06:00:43;;;;;;;8.10;4.03;;;5.80;99.90;;;;;;5057802;28;20086;-84
2023/04/13 06:03:09;;;;;;;9.30;3.30;;;5.80;99.90;;;;;;5058017;28;20489;-84
2023/04/13 06:05:37;;;;;;;7.60;3.35;;;5.80;99.90;;;;;;5072945;28;20045;-85
2023/04/13 06:08:03;;;;;;;9.30;3.60;;;5.90;99.90;;;;;;5074801;28;20055;-84
2023/04/13 06:10:29;;;;;;;5.25;3.40;;;6.00;99.90;;;;;;5073418;28;20036;-84
2023/04/13 06:12:55;;;;;;;5.05;3.35;;;6.10;99.90;;;;;;5074420;28;20116;-84
2023/04/13 06:15:20;;;;;;;10.80;2.97;;;6.20;99.90;;;;;;5073316;28;20040;-84
2023/04/13 06:17:49;;;;;;;7.32;3.15;;;6.20;99.90;;;;;;5057998;28;20036;-84
2023/04/13 06:20:15;;;;;;;6.20;2.55;;;6.40;99.90;;;;;;5073512;28;20127;-84
2023/04/13 06:22:41;;;;;;;6.43;2.83;;;6.50;99.90;;;;;;5064037;28;20139;-85
2023/04/13 06:25:07;;;;;;;6.68;3.10;;;6.50;99.90;;;;;;5054900;28;20094;-84
2023/04/13 06:27:33;;;;;;;9.95;3.08;;;6.50;99.90;;;;;;5044556;28;20040;-85
2023/04/13 06:30:00;;;;;;;9.70;3.75;;;6.50;99.90;;;;;;5073829;28;20082;-85
2023/04/13 06:32:25;;;;;;;8.20;3.47;;;6.40;99.90;;;;;;5056189;28;20048;-85
2023/04/13 06:34:51;;;;;;;5.80;3.25;;;6.40;99.90;;;;;;5073622;28;20052;-85
2023/04/13 06:37:18;;;;;;;6.85;2.83;;;6.30;99.90;;;;;;5049237;28;20151;-85
2023/04/13 06:39:44;;;;;;;9.40;3.35;;;6.40;99.90;;;;;;5067789;28;20086;-85
2023/04/13 06:42:09;;;;;;;10.25;3.72;;;6.50;99.90;;;;;;5054620;28;20052;-84
2023/04/13 06:44:35;;;;;;;9.02;3.90;;;6.60;99.90;;;;;;5053582;28;20045;-84
2023/04/13 06:47:01;;;;;;;8.38;3.63;;;6.70;99.90;;;;;;5037906;28;20597;-85
2023/04/13 06:49:27;;;;;;;12.80;3.97;;;6.80;99.90;;;;;;5053460;28;20074;-85
2023/04/13 06:51:52;;;;;;;10.80;4.68;;;6.90;99.90;;;;;;5063269;28;20131;-85
2023/04/13 06:54:18;;;;;;;8.38;4.28;;;7.00;99.90;;;;;;5056356;28;20457;-85
2023/04/13 06:56:44;;;;;;;11.55;4.15;;;6.90;99.90;;;;;;5057444;28;20040;-84
2023/04/13 06:59:11;;;;;;;8.93;4.28;;;6.90;99.90;;;;;;5073219;28;20055;-85
2023/04/13 07:01:37;;;;;;;10.70;4.20;;;6.90;99.90;;;;;;5073284;28;20147;-85
2023/04/13 07:04:05;;;;;;;6.47;3.85;;;6.80;99.90;;;;;;5043201;28;20118;-85
2023/04/13 07:06:31;;;;;;;9.57;3.70;;;6.90;99.90;;;;;;5037162;28;20048;-85
2023/04/13 07:08:57;;;;;;;8.65;3.42;;;7.00;99.90;;;;;;5053799;28;20052;-85
2023/04/13 07:11:25;;;;;;;7.07;3.55;;;7.00;99.90;;;;;;5056210;28;20048;-85
2023/04/13 07:13:51;;;;;;;5.88;3.40;;;6.90;99.90;;;;;;5068550;28;20045;-85
2023/04/13 07:16:16;;;;;;;12.05;4.00;;;6.90;99.90;;;;;;5052881;28;20128;-85
2023/04/13 07:18:42;;;;;;;5.05;3.03;;;7.00;99.90;;;;;;5057989;28;20031;-84
2023/04/13 07:21:08;;;;;;;7.22;3.35;;;7.00;99.90;;;;;;5065133;28;20416;-84
2023/04/13 07:23:34;;;;;;;6.95;2.90;;;7.10;99.90;;;;;;5073342;28;20043;-85
2023/04/13 07:26:00;;;;;;;8.23;3.13;;;7.10;99.90;;;;;;5093344;28;20047;-84
2023/04/13 07:28:26;;;;;;;6.95;3.13;;;7.20;81.30;;;;;;5059326;28;20056;-85
2023/04/13 07:30:52;;;;;;;7.35;2.90;;;7.10;78.90;;;;;;5073129;28;20055;-84
2023/04/13 07:33:17;;;;;;;8.13;2.88;;;7.10;92.20;;;;;;5072575;28;20050;-85
2023/04/13 07:35:43;;;;;;;5.18;2.60;;;7.10;98.70;;;;;;5047651;28;20393;-85
2023/04/13 07:38:09;;;;;;;6.53;3.08;;;7.20;85.50;;;;;;5053823;28;20056;-85
2023/04/13 07:40:35;;;;;;;5.25;2.70;;;7.10;71.20;;;;;;5055908;28;20389;-85
2023/04/13 07:43:01;;;;;;;8.43;2.83;;;7.00;58.30;;;;;;5053813;28;20044;-85
2023/04/13 07:45:30;;;;;;;4.80;2.53;;;7.00;77.00;;;;;;5052897;28;20102;-84
2023/04/13 07:47:56;;;;;;;7.80;2.70;;;7.10;70.30;;;;;;5054090;28;20533;-84
2023/04/13 07:50:22;;;;;;;5.70;2.70;;;7.40;68.40;;;;;;5056085;28;20121;-86
2023/04/13 07:52:48;;;;;;;11.43;3.10;;;7.50;28.00;;;;;;5042399;28;20089;-84
2023/04/13 07:55:14;;;;;;;6.75;2.50;;;7.70;18.40;;;;;;5020060;28;20106;-84
2023/04/13 07:57:40;;;;;;;7.22;2.70;;;7.80;23.00;;;;;;5036893;28;20179;-85
2023/04/13 08:00:07;;;;;;;5.25;2.45;;;8.00;22.60;;;;;;5042568;28;20071;-85
2023/04/13 08:02:33;;;;;;;7.13;2.78;;;8.20;1.00;;;;;;5066673;28;20048;-85
2023/04/13 08:04:58;;;;;;;5.53;2.47;;;8.30;1.00;;;;;;5053527;28;20048;-85
2023/04/13 08:07:25;;;;;;;9.00;3.08;;;8.10;1.00;;;;;;5080179;28;20071;-88
2023/04/13 08:09:51;;;;;;;4.97;3.20;;;7.90;1.00;;;;;;5072578;28;20051;-85
2023/04/13 08:12:17;;;;;;;7.30;3.03;;;7.80;1.00;;;;;;5052997;28;20426;-85
2023/04/13 08:14:43;;;;;;;7.82;3.10;;;7.90;8.40;;;;;;5048637;28;20051;-86
2023/04/13 08:17:10;;;;;;;4.15;2.65;;;7.80;25.00;;;;;;5045662;28;20481;-85
2023/04/13 08:19:36;;;;;;;4.35;2.53;;;7.80;49.70;;;;;;5073935;28;20399;-86
2023/04/13 08:22:02;;;;;;;11.93;2.97;;;7.90;31.90;;;;;;5043210;28;20051;-85
2023/04/13 08:24:28;;;;;;;4.57;2.60;;;7.90;33.60;;;;;;5055169;28;20485;-86
2023/04/13 08:26:56;;;;;;;5.10;2.65;;;8.00;54.90;;;;;;5042755;28;20051;-85
2023/04/13 08:29:23;;;;;;;5.88;2.50;;;8.00;48.70;;;;;;5065474;28;20723;-85
2023/04/13 08:31:49;;;;;;;6.63;2.50;;;7.90;17.80;;;;;;5057719;28;20048;-85
2023/04/13 08:34:16;;;;;;;5.15;2.17;;;7.80;23.20;;;;;;5057708;28;20055;-86
2023/04/13 08:36:44;;;;;;;3.95;2.10;;;7.70;54.00;;;;;;5040713;28;20490;-86
2023/04/13 08:39:12;;;;;;;5.60;2.17;;;7.60;85.10;;;;;;5065054;28;20425;-86
2023/04/13 08:41:38;;;;;;;6.00;2.75;;;7.60;92.80;;;;;;5041720;28;20473;-85
2023/04/13 08:44:05;;;;;;;8.20;2.15;;;7.50;96.30;;;;;;5063487;28;20051;-86
2023/04/13 08:46:32;;;;;;;3.17;2.40;;;7.50;99.90;;;;;;5043617;28;20456;-86
2023/04/13 08:49:00;;;;;;;4.57;2.50;;;7.50;99.90;;;;;;5056335;28;20098;-86
2023/04/13 08:51:33;;;;;;;4.10;2.20;;;7.60;99.90;;;;;;5055331;28;20547;-86
2023/04/13 08:53:58;;;;;;;3.53;1.77;;;7.70;99.90;;;;;;5084546;28;20055;-85
2023/04/13 08:56:25;;;;;;;2.33;1.50;;;7.90;99.90;;;;;;5042524;28;20062;-85
2023/04/13 08:59:12;;;;;;;4.15;1.60;;;8.10;99.90;;;;;;5067569;28;20054;-85
2023/04/13 09:01:38;;;;;;;3.35;1.17;;;8.20;81.10;;;;;;5078016;28;20417;-84
2023/04/13 09:04:09;;;;;;;3.03;1.00;;;8.30;80.40;;;;;;5071961;28;20440;-84
2023/04/13 09:06:40;;;;;;;1.77;1.00;;;8.20;19.60;;;;;;5081568;28;20414;-84
2023/04/13 09:09:14;;;;;;;1.42;0.90;;;8.10;2.30;;;;;;5065663;28;20052;-82
2023/04/13 09:11:41;;;;;;;2.53;1.08;;;8.10;26.50;;;;;;5064348;28;20048;-83
2023/04/13 09:14:07;;;;;;;3.42;0.55;;;8.00;24.50;;;;;;5071591;28;20442;-85
2023/04/13 09:16:42;;;;;;;1.65;0.43;;;7.80;49.00;;;;;;5038679;28;20048;-86
2023/04/13 09:19:10;;;;;;;0.30;0.30;;;7.70;43.30;;;;;;5067666;28;20051;-85
2023/04/13 09:21:43;;;;;;;2.35;0.60;;;7.70;55.50;;;;;;5058884;28;20139;-87
2023/04/13 09:24:10;;;;;;;1.77;0.90;;;7.80;93.20;;;;;;5070072;28;20048;-85
2023/04/13 09:26:44;;;;;;;0.93;0.40;;;8.00;97.90;;;;;;5055061;28;20044;-87
2023/04/13 09:29:13;;;;;;;1.77;0.60;;;8.20;99.90;;;;;;5064910;28;20084;-85
2023/04/13 09:31:39;;;;;;;1.00;0.45;;;9.10;66.00;;;;;;5078697;28;20040;-84
2023/04/13 09:34:07;;;;;;;2.40;1.20;;;10.00;68.70;;;;;;5071959;28;20059;-85
2023/04/13 09:36:33;;;;;;;0.95;0.70;;;10.70;1.00;;;;;;5042168;28;20109;-85
2023/04/13 09:38:58;;;;;;;1.13;0.50;;;10.40;99.90;;;;;;5054583;28;20061;-86
2023/04/13 09:41:36;;;;;;;3.67;0.70;;;9.40;1.00;;;;;;5033019;28;20094;-87
2023/04/13 09:44:15;;;;;;;3.88;1.00;;;8.40;70.20;;;;;;5075384;28;20040;-87
2023/04/13 09:46:42;;;;;;;1.02;0.52;;;8.00;99.90;;;;;;5055056;28;20131;-86
2023/04/13 09:49:08;;;;;;;2.95;0.95;;;7.90;99.90;;;;;;5058968;28;20087;-88
2023/04/13 09:51:40;;;;;;;8.18;1.00;;;8.50;99.90;;;;;;5042080;28;20535;-86
2023/04/13 09:54:06;;;;;;;5.00;1.00;;;9.80;99.90;;;;;;5074790;28;20094;-86
2023/04/13 09:56:51;;;;;;;4.28;0.90;;;10.80;99.90;;;;;;5051913;28;20635;-86
2023/04/13 09:59:26;;;;;;;3.35;0.80;;;11.70;99.90;;;;;;5043771;28;20044;-85
2023/04/13 10:01:53;;;;;;;2.70;0.93;;;11.10;99.90;;;;;;5058408;28;20485;-86
2023/04/13 10:04:19;;;;;;;5.53;1.38;;;10.50;80.30;;;;;;5058403;28;20079;-86
2023/04/13 10:06:46;;;;;;;7.13;1.23;;;9.70;23.90;;;;;;5058204;28;20047;-85
2023/04/13 10:09:13;;;;;;;7.30;1.20;;;9.30;79.10;;;;;;5054498;28;20128;-85
2023/04/13 10:11:45;;;;;;;4.72;0.98;;;9.10;90.30;;;;;;5085036;28;20062;-88
2023/04/13 10:14:16;;;;;;;1.98;0.55;;;8.80;47.80;;;;;;5068858;28;20054;-86
2023/04/13 10:16:57;;;;;;;1.67;1.15;;;8.50;99.90;;;;;;5062548;28;20741;-87
2023/04/13 10:19:26;;;;;;;2.35;0.52;;;8.10;99.90;;;;;;5075017;28;20055;-86
2023/04/13 10:21:53;;;;;;;1.27;0.45;;;7.70;99.90;;;;;;5071782;28;20079;-85
2023/04/13 10:24:20;;;;;;;3.35;0.60;;;7.50;99.90;;;;;;5066468;28;20463;-85
2023/04/13 10:26:46;;;;;;;3.03;0.47;;;7.50;99.90;;;;;;5062318;28;20048;-85
2023/04/13 10:29:13;;;;;;;2.58;0.60;;;7.60;99.90;;;;;;5037871;28;20436;-84
2023/04/13 10:31:47;;;;;;;1.42;0.60;;;8.00;99.90;;;;;;5073310;28;20048;-85
2023/04/13 10:34:24;;;;;;;6.32;1.00;;;8.50;99.90;;;;;;5074322;28;20047;-84
2023/04/13 10:36:52;;;;;;;1.98;0.88;;;8.30;99.90;;;;;;5056786;28;20051;-84
2023/04/13 10:39:26;;;;;;;7.28;0.80;;;8.00;99.90;;;;;;5057284;28;20584;-84
2023/04/13 10:42:06;;;;;;;7.90;1.98;;;7.90;99.90;;;;;;5073359;28;20577;-84
2023/04/13 10:44:46;;;;;;;8.15;0.80;;;7.80;99.90;;;;;;5044108;28;20048;-84
2023/04/13 10:47:13;;;;;;;2.22;0.50;;;7.60;99.90;;;;;;5048342;28;20082;-84
2023/04/13 10:49:42;;;;;;;1.80;0.40;;;7.40;99.90;;;;;;5057040;28;20147;-84
2023/04/13 10:52:09;;;;;;;2.03;0.50;;;7.20;99.90;;;;;;5073561;28;20051;-83
2023/04/13 10:54:36;;;;;;;3.97;0.70;;;7.10;99.90;;;;;;5069750;28;20113;-84
2023/04/13 10:57:05;;;;;;;3.55;0.52;;;7.20;99.90;;;;;;5067701;28;20047;-84
2023/04/13 10:59:48;;;;;;;1.67;0.50;;;7.40;99.90;;;;;;5075865;28;20149;-84
2023/04/13 11:02:15;;;;;;;1.88;0.60;;;7.90;99.90;;;;;;5073138;28;20047;-84
2023/04/13 11:04:43;;;;;;;2.47;0.55;;;7.90;99.90;;;;;;5061495;28;20083;-83
2023/04/13 11:07:24;;;;;;;6.63;0.93;;;7.80;99.90;;;;;;5055913;28;20036;-83
2023/04/13 11:09:50;;;;;;;3.22;0.80;;;7.80;99.90;;;;;;5056651;28;20123;-86
2023/04/13 11:12:17;;;;;;;2.85;0.93;;;8.00;99.90;;;;;;5056535;28;20123;-83
2023/04/13 11:14:46;;;;;;;3.40;1.00;;;8.20;99.90;;;;;;5057545;28;20048;-84
2023/04/13 11:17:14;;;;;;;4.50;1.20;;;8.50;99.90;;;;;;5081472;28;20040;-83
2023/04/13 11:19:51;;;;;;;7.25;1.30;;;8.90;99.90;;;;;;5053929;28;20048;-83
2023/04/13 11:22:20;;;;;;;5.65;1.73;;;9.40;99.90;;;;;;5049713;28;20056;-82
2023/04/13 11:24:46;;;;;;;8.80;1.98;;;10.10;99.90;;;;;;5066789;28;20444;-84
2023/04/13 11:27:22;;;;;;;7.15;1.67;;;10.50;99.90;;;;;;5055985;28;20126;-84
2023/04/13 11:30:04;;;;;;;5.70;1.42;;;10.70;99.90;;;;;;5060377;28;20128;-83
2023/04/13 11:32:35;;;;;;;6.93;1.70;;;10.50;99.90;;;;;;5053655;28;20555;-84
2023/04/13 11:35:22;;;;;;;10.25;2.42;;;10.20;99.90;;;;;;5068585;28;20051;-84
2023/04/13 11:37:51;;;;;;;10.85;2.05;;;9.60;99.90;;;;;;5060678;28;20063;-83
2023/04/13 11:40:26;;;;;;;10.63;1.90;;;9.20;99.90;;;;;;5066003;28;20056;-83
2023/04/13 11:42:52;;;;;;;12.57;1.70;;;8.90;99.90;;;;;;5054218;28;20186;-83
2023/04/13 11:45:21;;;;;;;11.02;2.20;;;8.70;99.90;;;;;;5048449;28;20049;-84
2023/04/13 11:47:48;;;;;;;8.90;1.83;;;8.60;99.90;;;;;;5057070;28;20500;-83
2023/04/13 11:50:16;;;;;;;8.25;1.92;;;8.70;99.90;;;;;;5083444;28;20154;-83
2023/04/13 11:52:45;;;;;;;7.22;1.38;;;8.90;99.90;;;;;;5083578;28;20405;-83
2023/04/13 11:55:12;;;;;;;9.65;1.42;;;9.20;99.90;;;;;;5052736;28;20047;-83
2023/04/13 11:57:40;;;;;;;8.25;1.48;;;9.60;48.30;;;;;;5049396;28;21376;-83
2023/04/13 12:00:18;;;;;;;5.35;1.27;;;9.80;68.80;;;;;;5062542;28;20048;-83
2023/04/13 12:02:45;;;;;;;4.82;1.00;;;9.70;1.00;;;;;;5055335;28;20079;-83
2023/04/13 12:05:28;;;;;;;9.38;1.45;;;9.30;1.00;;;;;;5067396;28;20062;-84
2023/04/13 12:07:55;;;;;;;8.95;1.77;;;9.00;1.00;;;;;;5077484;28;20044;-83
2023/04/13 12:10:25;;;;;;;5.55;1.00;;;8.90;75.90;;;;;;5073347;28;20130;-83
2023/04/13 12:12:58;;;;;;;4.68;1.20;;;8.90;1.00;;;;;;5066512;28;20712;-83
2023/04/13 12:15:28;;;;;;;5.70;1.13;;;9.10;1.00;;;;;;5072020;28;20059;-84
2023/04/13 12:17:55;;;;;;;8.48;1.15;;;9.40;1.00;;;;;;5072417;28;20485;-84
2023/04/13 12:20:21;;;;;;;6.10;1.10;;;9.40;1.00;;;;;;5054961;28;20524;-83
2023/04/13 12:22:47;;;;;;;9.32;1.35;;;9.40;1.00;;;;;;5072317;28;20032;-84
2023/04/13 12:25:16;;;;;;;11.63;1.30;;;9.30;1.00;;;;;;5058641;28;20051;-83
2023/04/13 12:27:42;;;;;;;5.10;0.90;;;9.20;1.00;;;;;;5071875;28;20051;-84
2023/04/13 12:30:12;;;;;;;4.68;1.13;;;9.10;1.00;;;;;;5054642;28;20047;-83
2023/04/13 12:32:53;;;;;;;3.55;0.73;;;8.90;99.90;;;;;;5065425;28;20043;-84
2023/04/13 12:35:19;;;;;;;7.75;0.98;;;8.70;99.90;;;;;;5060087;28;20055;-84
2023/04/13 12:37:46;;;;;;;5.78;0.98;;;8.70;1.00;;;;;;5038029;28;20051;-84
2023/04/13 12:40:14;;;;;;;5.32;1.00;;;8.80;99.90;;;;;;5071756;28;20051;-84
2023/04/13 12:42:42;;;;;;;5.57;0.95;;;8.90;99.90;;;;;;5072380;28;20063;-84
2023/04/13 12:45:08;;;;;;;5.45;1.80;;;8.90;99.90;;;;;;5054879;28;20063;-84
2023/04/13 12:47:35;;;;;;;5.20;1.00;;;9.00;1.00;;;;;;5055002;28;20044;-86
2023/04/13 12:50:06;;;;;;;8.18;1.25;;;9.00;1.00;;;;;;5079769;28;20429;-85
2023/04/13 12:52:33;;;;;;;7.95;1.45;;;9.20;1.00;;;;;;5060493;28;20393;-84
2023/04/13 12:54:59;;;;;;;8.82;1.33;;;9.40;99.90;;;;;;5038816;28;20564;-84
2023/04/13 12:57:26;;;;;;;9.05;1.63;;;9.60;99.90;;;;;;5040168;28;20037;-84
2023/04/13 12:59:52;;;;;;;6.50;1.00;;;9.70;99.90;;;;;;5061405;28;20093;-84
2023/04/13 13:02:18;;;;;;;12.98;2.00;;;9.90;99.90;;;;;;5041683;28;20045;-84